sensor_id;sensor_type;location;lat;lon;timestamp;pressure;altitude;pressure_sealevel;temperature;humidity
55733;BME280;41637;52.364;9.910;2023-09-30T00:00:07;101607.06;;;14.19;98.22
55733;BME280;41637;52.364;9.910;2023-09-30T00:02:36;101607.44;;;14.16;98.62
55733;BME280;41637;52.364;9.910;2023-09-30T00:05:03;101608.25;;;14.17;98.71
55733;BME280;41637;52.364;9.910;2023-09-30T00:07:30;101610.28;;;14.15;98.76
55733;BME280;41637;52.364;9.910;2023-09-30T00:09:58;101610.94;;;14.17;98.50
55733;BME280;41637;52.364;9.910;2023-09-30T00:12:26;101619.75;;;14.17;98.62
55733;BME280;41637;52.364;9.910;2023-09-30T00:14:54;101617.09;;;14.17;98.28
55733;BME280;41637;52.364;9.910;2023-09-30T00:17:21;101618.13;;;14.16;98.50
55733;BME280;41637;52.364;9.910;2023-09-30T00:19:48;101613.75;;;14.15;98.36
55733;BME280;41637;52.364;9.910;2023-09-30T00:22:15;101623.81;;;14.13;98.29
55733;BME280;41637;52.364;9.910;2023-09-30T00:24:42;101641.84;;;14.11;98.20
55733;BME280;41637;52.364;9.910;2023-09-30T00:27:09;101641.63;;;14.13;97.99
55733;BME280;41637;52.364;9.910;2023-09-30T00:29:36;101629.31;;;14.12;98.08
55733;BME280;41637;52.364;9.910;2023-09-30T00:32:03;101638.69;;;14.07;98.00
55733;BME280;41637;52.364;9.910;2023-09-30T00:34:36;101637.19;;;14.05;97.97
55733;BME280;41637;52.364;9.910;2023-09-30T00:37:03;101649.88;;;14.03;98.09
55733;BME280;41637;52.364;9.910;2023-09-30T00:39:32;101647.75;;;13.98;97.96
55733;BME280;41637;52.364;9.910;2023-09-30T00:41:59;101648.91;;;13.96;97.76
55733;BME280;41637;52.364;9.910;2023-09-30T00:44:27;101651.91;;;13.93;98.05
55733;BME280;41637;52.364;9.910;2023-09-30T00:46:54;101648.75;;;13.89;97.92
55733;BME280;41637;52.364;9.910;2023-09-30T00:49:23;101647.94;;;13.89;97.69
55733;BME280;41637;52.364;9.910;2023-09-30T00:51:52;101660.63;;;13.86;97.50
55733;BME280;41637;52.364;9.910;2023-09-30T00:54:20;101656.63;;;13.82;97.92
55733;BME280;41637;52.364;9.910;2023-09-30T00:56:51;101660.13;;;13.83;97.69
55733;BME280;41637;52.364;9.910;2023-09-30T00:59:19;101660.47;;;13.80;97.64
55733;BME280;41637;52.364;9.910;2023-09-30T01:01:46;101663.31;;;13.78;97.72
55733;BME280;41637;52.364;9.910;2023-09-30T01:04:15;101659.97;;;13.76;97.61
55733;BME280;41637;52.364;9.910;2023-09-30T01:06:42;101650.31;;;13.75;97.64
55733;BME280;41637;52.364;9.910;2023-09-30T01:09:09;101640.66;;;13.74;97.32
55733;BME280;41637;52.364;9.910;2023-09-30T01:11:36;101641.84;;;13.72;97.24
55733;BME280;41637;52.364;9.910;2023-09-30T01:14:03;101646.50;;;13.70;97.54
55733;BME280;41637;52.364;9.910;2023-09-30T01:16:30;101645.69;;;13.69;97.16
55733;BME280;41637;52.364;9.910;2023-09-30T01:18:57;101650.34;;;13.67;96.92
55733;BME280;41637;52.364;9.910;2023-09-30T01:21:24;101652.69;;;13.62;97.13
55733;BME280;41637;52.364;9.910;2023-09-30T01:23:53;101645.88;;;13.59;97.16
55733;BME280;41637;52.364;9.910;2023-09-30T01:26:20;101653.03;;;13.59;96.98
55733;BME280;41637;52.364;9.910;2023-09-30T01:28:47;101657.88;;;13.55;97.28
55733;BME280;41637;52.364;9.910;2023-09-30T01:31:15;101660.53;;;13.55;97.33
55733;BME280;41637;52.364;9.910;2023-09-30T01:33:42;101667.72;;;13.55;97.30
55733;BME280;41637;52.364;9.910;2023-09-30T01:36:09;101678.22;;;13.56;97.18
55733;BME280;41637;52.364;9.910;2023-09-30T01:38:36;101682.72;;;13.56;97.44
55733;BME280;41637;52.364;9.910;2023-09-30T01:41:03;101682.06;;;13.54;97.12
55733;BME280;41637;52.364;9.910;2023-09-30T01:43:30;101683.03;;;13.53;96.90
55733;BME280;41637;52.364;9.910;2023-09-30T01:45:57;101679.88;;;13.49;97.10
55733;BME280;41637;52.364;9.910;2023-09-30T01:48:25;101684.75;;;13.45;97.11
55733;BME280;41637;52.364;9.910;2023-09-30T01:50:51;101689.56;;;13.42;96.93
55733;BME280;41637;52.364;9.910;2023-09-30T01:53:18;101689.06;;;13.38;96.86
55733;BME280;41637;52.364;9.910;2023-09-30T01:55:45;101684.91;;;13.36;96.92
55733;BME280;41637;52.364;9.910;2023-09-30T01:58:12;101680.75;;;13.33;96.93
55733;BME280;41637;52.364;9.910;2023-09-30T02:00:39;101678.41;;;13.30;97.06
55733;BME280;41637;52.364;9.910;2023-09-30T02:03:06;101688.38;;;13.28;97.06
55733;BME280;41637;52.364;9.910;2023-09-30T02:05:34;101681.41;;;13.27;97.13
55733;BME280;41637;52.364;9.910;2023-09-30T02:08:01;101687.06;;;13.24;97.44
55733;BME280;41637;52.364;9.910;2023-09-30T02:10:32;101687.06;;;13.24;97.48
55733;BME280;41637;52.364;9.910;2023-09-30T02:13:02;101686.41;;;13.22;97.45
55733;BME280;41637;52.364;9.910;2023-09-30T02:15:33;101692.72;;;13.21;97.53
55733;BME280;41637;52.364;9.910;2023-09-30T02:18:00;101689.38;;;13.19;97.31
55733;BME280;41637;52.364;9.910;2023-09-30T02:20:27;101698.56;;;13.16;97.38
55733;BME280;41637;52.364;9.910;2023-09-30T02:22:57;101692.22;;;13.17;97.26
55733;BME280;41637;52.364;9.910;2023-09-30T02:25:25;101682.72;;;13.15;97.66
55733;BME280;41637;52.364;9.910;2023-09-30T02:27:52;101672.06;;;13.15;97.21
55733;BME280;41637;52.364;9.910;2023-09-30T02:30:19;101669.41;;;13.15;97.37
55733;BME280;41637;52.364;9.910;2023-09-30T02:32:46;101668.75;;;13.13;97.44
55733;BME280;41637;52.364;9.910;2023-09-30T02:35:13;101685.56;;;13.13;97.53
55733;BME280;41637;52.364;9.910;2023-09-30T02:37:44;101681.91;;;13.14;97.47
55733;BME280;41637;52.364;9.910;2023-09-30T02:40:11;101684.72;;;13.13;97.60
55733;BME280;41637;52.364;9.910;2023-09-30T02:42:39;101691.91;;;13.12;97.44
55733;BME280;41637;52.364;9.910;2023-09-30T02:45:07;101705.38;;;13.11;97.59
55733;BME280;41637;52.364;9.910;2023-09-30T02:47:35;101699.06;;;13.12;97.67
55733;BME280;41637;52.364;9.910;2023-09-30T02:50:06;101696.41;;;13.12;97.60
55733;BME280;41637;52.364;9.910;2023-09-30T02:52:35;101708.03;;;13.11;97.71
55733;BME280;41637;52.364;9.910;2023-09-30T02:55:03;101712.53;;;13.10;97.61
55733;BME280;41637;52.364;9.910;2023-09-30T02:57:30;101698.56;;;13.08;97.78
55733;BME280;41637;52.364;9.910;2023-09-30T02:59:58;101698.56;;;13.08;98.04
55733;BME280;41637;52.364;9.910;2023-09-30T03:02:28;101697.06;;;13.05;98.15
55733;BME280;41637;52.364;9.910;2023-09-30T03:04:54;101703.38;;;13.04;97.87
55733;BME280;41637;52.364;9.910;2023-09-30T03:07:21;101709.88;;;13.02;97.83
55733;BME280;41637;52.364;9.910;2023-09-30T03:09:49;101712.69;;;13.00;97.75
55733;BME280;41637;52.364;9.910;2023-09-30T03:12:16;101710.38;;;12.97;97.82
55733;BME280;41637;52.364;9.910;2023-09-30T03:14:43;101706.06;;;12.96;97.89
55733;BME280;41637;52.364;9.910;2023-09-30T03:17:11;101702.72;;;12.94;98.04
55733;BME280;41637;52.364;9.910;2023-09-30T03:19:39;101696.72;;;12.92;97.95
55733;BME280;41637;52.364;9.910;2023-09-30T03:22:06;101703.38;;;12.88;98.03
55733;BME280;41637;52.364;9.910;2023-09-30T03:24:38;101697.06;;;12.89;98.11
55733;BME280;41637;52.364;9.910;2023-09-30T03:27:07;101703.38;;;12.88;98.07
55733;BME280;41637;52.364;9.910;2023-09-30T03:29:37;101701.72;;;12.87;98.03
55733;BME280;41637;52.364;9.910;2023-09-30T03:32:07;101700.06;;;12.86;98.20
55733;BME280;41637;52.364;9.910;2023-09-30T03:34:34;101702.88;;;12.84;98.28
55733;BME280;41637;52.364;9.910;2023-09-30T03:37:04;101695.03;;;12.83;98.16
55733;BME280;41637;52.364;9.910;2023-09-30T03:39:33;101700.56;;;12.81;98.45
55733;BME280;41637;52.364;9.910;2023-09-30T03:42:00;101707.69;;;12.81;98.47
55733;BME280;41637;52.364;9.910;2023-09-30T03:44:27;101700.72;;;12.80;98.32
55733;BME280;41637;52.364;9.910;2023-09-30T03:46:55;101704.34;;;12.79;98.47
55733;BME280;41637;52.364;9.910;2023-09-30T03:49:22;101702.72;;;12.78;98.44
55733;BME280;41637;52.364;9.910;2023-09-30T03:51:48;101687.03;;;12.75;98.38
55733;BME280;41637;52.364;9.910;2023-09-30T03:54:17;101696.19;;;12.72;98.62
55733;BME280;41637;52.364;9.910;2023-09-30T03:56:45;101701.00;;;12.69;98.90
55733;BME280;41637;52.364;9.910;2023-09-30T03:59:13;101692.38;;;12.67;99.04
55733;BME280;41637;52.364;9.910;2023-09-30T04:01:40;101686.53;;;12.63;99.09
55733;BME280;41637;52.364;9.910;2023-09-30T04:04:07;101696.00;;;12.57;99.21
55733;BME280;41637;52.364;9.910;2023-09-30T04:06:37;101696.00;;;12.57;99.22
55733;BME280;41637;52.364;9.910;2023-09-30T04:09:07;101699.84;;;12.55;99.56
55733;BME280;41637;52.364;9.910;2023-09-30T04:11:37;101697.31;;;12.53;99.71
55733;BME280;41637;52.364;9.910;2023-09-30T04:14:07;101707.31;;;12.51;99.69
55733;BME280;41637;52.364;9.910;2023-09-30T04:16:35;101700.34;;;12.50;99.54
55733;BME280;41637;52.364;9.910;2023-09-30T04:19:02;101696.84;;;12.50;99.52
55733;BME280;41637;52.364;9.910;2023-09-30T04:21:29;101694.34;;;12.48;99.47
55733;BME280;41637;52.364;9.910;2023-09-30T04:23:57;101705.97;;;12.47;99.68
55733;BME280;41637;52.364;9.910;2023-09-30T04:26:24;101702.63;;;12.45;99.80
55733;BME280;41637;52.364;9.910;2023-09-30T04:28:52;101694.81;;;12.43;99.97
55733;BME280;41637;52.364;9.910;2023-09-30T04:31:20;101693.16;;;12.42;99.94
55733;BME280;41637;52.364;9.910;2023-09-30T04:33:50;101699.47;;;12.41;99.99
55733;BME280;41637;52.364;9.910;2023-09-30T04:36:18;101697.81;;;12.40;100.00
55733;BME280;41637;52.364;9.910;2023-09-30T04:38:45;101699.63;;;12.40;100.00
55733;BME280;41637;52.364;9.910;2023-09-30T04:41:12;101711.28;;;12.39;100.00
55733;BME280;41637;52.364;9.910;2023-09-30T04:43:39;101710.28;;;12.40;100.00
55733;BME280;41637;52.364;9.910;2023-09-30T04:46:06;101713.94;;;12.39;100.00
55733;BME280;41637;52.364;9.910;2023-09-30T04:48:35;101716.44;;;12.40;100.00
55733;BME280;41637;52.364;9.910;2023-09-30T04:51:06;101718.09;;;12.41;100.00
55733;BME280;41637;52.364;9.910;2023-09-30T04:53:33;101717.78;;;12.44;100.00
55733;BME280;41637;52.364;9.910;2023-09-30T04:56:00;101717.63;;;12.46;100.00
55733;BME280;41637;52.364;9.910;2023-09-30T04:58:28;101718.28;;;12.48;100.00
55733;BME280;41637;52.364;9.910;2023-09-30T05:00:56;101717.13;;;12.51;100.00
55733;BME280;41637;52.364;9.910;2023-09-30T05:03:24;101711.66;;;12.52;100.00
55733;BME280;41637;52.364;9.910;2023-09-30T05:05:52;101712.31;;;12.54;100.00
55733;BME280;41637;52.364;9.910;2023-09-30T05:08:24;101712.31;;;12.54;100.00
55733;BME280;41637;52.364;9.910;2023-09-30T05:10:51;101707.00;;;12.54;100.00
55733;BME280;41637;52.364;9.910;2023-09-30T05:13:22;101709.81;;;12.53;100.00
55733;BME280;41637;52.364;9.910;2023-09-30T05:15:52;101704.63;;;12.51;100.00
55733;BME280;41637;52.364;9.910;2023-09-30T05:18:20;101715.47;;;12.50;100.00
55733;BME280;41637;52.364;9.910;2023-09-30T05:20:47;101714.63;;;12.49;100.00
55733;BME280;41637;52.364;9.910;2023-09-30T05:23:13;101717.47;;;12.48;100.00
55733;BME280;41637;52.364;9.910;2023-09-30T05:25:41;101721.94;;;12.47;100.00
55733;BME280;41637;52.364;9.910;2023-09-30T05:28:09;101720.28;;;12.46;100.00
55733;BME280;41637;52.364;9.910;2023-09-30T05:30:38;101718.28;;;12.48;100.00
55733;BME280;41637;52.364;9.910;2023-09-30T05:33:06;101724.44;;;12.49;100.00
55733;BME280;41637;52.364;9.910;2023-09-30T05:35:33;101732.28;;;12.50;100.00
55733;BME280;41637;52.364;9.910;2023-09-30T05:38:00;101724.97;;;12.52;100.00
55733;BME280;41637;52.364;9.910;2023-09-30T05:40:27;101725.78;;;12.53;100.00
55733;BME280;41637;52.364;9.910;2023-09-30T05:42:57;101734.44;;;12.55;100.00
55733;BME280;41637;52.364;9.910;2023-09-30T05:45:27;101719.28;;;12.55;100.00
55733;BME280;41637;52.364;9.910;2023-09-30T05:47:55;101730.47;;;12.59;100.00
55733;BME280;41637;52.364;9.910;2023-09-30T05:50:23;101723.00;;;12.62;100.00
55733;BME280;41637;52.364;9.910;2023-09-30T05:52:53;101735.63;;;12.69;100.00
55733;BME280;41637;52.364;9.910;2023-09-30T05:55:20;101736.66;;;12.76;100.00
55733;BME280;41637;52.364;9.910;2023-09-30T05:57:49;101733.16;;;12.83;100.00
55733;BME280;41637;52.364;9.910;2023-09-30T06:00:19;101737.66;;;12.91;100.00
55733;BME280;41637;52.364;9.910;2023-09-30T06:02:50;101736.00;;;12.98;100.00
55733;BME280;41637;52.364;9.910;2023-09-30T06:05:18;101744.66;;;13.09;100.00
55733;BME280;41637;52.364;9.910;2023-09-30T06:07:46;101749.50;;;13.13;99.62
55733;BME280;41637;52.364;9.910;2023-09-30T06:10:13;101758.34;;;13.22;99.71
55733;BME280;41637;52.364;9.910;2023-09-30T06:12:46;101764.69;;;13.29;99.07
55733;BME280;41637;52.364;9.910;2023-09-30T06:15:15;101765.69;;;13.36;98.76
55733;BME280;41637;52.364;9.910;2023-09-30T06:17:42;101772.34;;;13.40;98.49
55733;BME280;41637;52.364;9.910;2023-09-30T06:20:10;101782.19;;;13.48;98.20
55733;BME280;41637;52.364;9.910;2023-09-30T06:22:45;101784.03;;;13.56;98.31
55733;BME280;41637;52.364;9.910;2023-09-30T06:25:14;101785.16;;;13.61;97.75
55733;BME280;41637;52.364;9.910;2023-09-30T06:27:44;101781.53;;;13.62;97.35
55733;BME280;41637;52.364;9.910;2023-09-30T06:30:11;101779.00;;;13.61;97.20
55733;BME280;41637;52.364;9.910;2023-09-30T06:32:39;101779.31;;;13.58;97.13
55733;BME280;41637;52.364;9.910;2023-09-30T06:35:08;101785.69;;;13.57;97.20
55733;BME280;41637;52.364;9.910;2023-09-30T06:37:37;101783.84;;;13.57;97.33
55733;BME280;41637;52.364;9.910;2023-09-30T06:40:08;101777.31;;;13.60;97.40
55733;BME280;41637;52.364;9.910;2023-09-30T06:42:36;101783.31;;;13.62;97.33
55733;BME280;41637;52.364;9.910;2023-09-30T06:45:04;101793.50;;;13.66;97.34
55733;BME280;41637;52.364;9.910;2023-09-30T06:47:34;101796.50;;;13.72;97.32
55733;BME280;41637;52.364;9.910;2023-09-30T06:50:01;101795.00;;;13.77;97.16
55733;BME280;41637;52.364;9.910;2023-09-30T06:52:36;101797.63;;;13.85;97.06
55733;BME280;41637;52.364;9.910;2023-09-30T06:55:03;101800.28;;;13.94;96.83
55733;BME280;41637;52.364;9.910;2023-09-30T06:57:38;101802.63;;;14.05;96.59
55733;BME280;41637;52.364;9.910;2023-09-30T07:00:12;101805.25;;;14.13;96.26
55733;BME280;41637;52.364;9.910;2023-09-30T07:02:40;101804.22;;;14.22;95.97
55733;BME280;41637;52.364;9.910;2023-09-30T07:05:12;101810.19;;;14.33;95.69
55733;BME280;41637;52.364;9.910;2023-09-30T07:07:40;101814.50;;;14.42;95.12
55733;BME280;41637;52.364;9.910;2023-09-30T07:10:10;101813.44;;;14.51;95.19
55733;BME280;41637;52.364;9.910;2023-09-30T07:12:37;101828.47;;;14.60;94.59
55733;BME280;41637;52.364;9.910;2023-09-30T07:15:05;101818.22;;;14.72;94.50
55733;BME280;41637;52.364;9.910;2023-09-30T07:17:33;101827.22;;;14.79;93.64
55733;BME280;41637;52.364;9.910;2023-09-30T07:20:01;101827.16;;;14.87;93.17
55733;BME280;41637;52.364;9.910;2023-09-30T07:22:29;101818.28;;;14.95;92.57
55733;BME280;41637;52.364;9.910;2023-09-30T07:24:58;101825.03;;;15.06;92.31
55733;BME280;41637;52.364;9.910;2023-09-30T07:27:25;101831.16;;;15.15;92.05
55733;BME280;41637;52.364;9.910;2023-09-30T07:29:54;101842.13;;;15.28;92.34
55733;BME280;41637;52.364;9.910;2023-09-30T07:32:21;101833.31;;;15.42;91.47
55733;BME280;41637;52.364;9.910;2023-09-30T07:34:51;101836.88;;;15.58;90.69
55733;BME280;41637;52.364;9.910;2023-09-30T07:37:18;101846.84;;;15.64;88.99
55733;BME280;41637;52.364;9.910;2023-09-30T07:39:47;101844.78;;;15.74;88.70
55733;BME280;41637;52.364;9.910;2023-09-30T07:42:14;101834.00;;;15.82;87.93
55733;BME280;41637;52.364;9.910;2023-09-30T07:44:41;101836.88;;;15.96;88.06
55733;BME280;41637;52.364;9.910;2023-09-30T07:47:08;101850.28;;;16.10;87.70
55733;BME280;41637;52.364;9.910;2023-09-30T07:49:37;101852.31;;;16.23;87.15
55733;BME280;41637;52.364;9.910;2023-09-30T07:52:04;101842.16;;;16.34;85.74
55733;BME280;41637;52.364;9.910;2023-09-30T07:54:31;101855.94;;;16.45;85.38
55733;BME280;41637;52.364;9.910;2023-09-30T07:56:58;101851.50;;;16.52;84.19
55733;BME280;41637;52.364;9.910;2023-09-30T07:59:26;101851.56;;;16.59;83.17
55733;BME280;41637;52.364;9.910;2023-09-30T08:01:53;101860.81;;;16.71;83.51
55733;BME280;41637;52.364;9.910;2023-09-30T08:04:20;101863.31;;;16.88;83.64
55733;BME280;41637;52.364;9.910;2023-09-30T08:06:48;101864.38;;;16.94;82.05
55733;BME280;41637;52.364;9.910;2023-09-30T08:09:15;101864.09;;;17.03;82.02
55733;BME280;41637;52.364;9.910;2023-09-30T08:11:45;101864.63;;;17.14;82.13
55733;BME280;41637;52.364;9.910;2023-09-30T08:14:12;101858.19;;;17.29;82.39
55733;BME280;41637;52.364;9.910;2023-09-30T08:16:38;101864.88;;;17.40;80.71
55733;BME280;41637;52.364;9.910;2023-09-30T08:19:05;101867.72;;;17.53;80.50
55733;BME280;41637;52.364;9.910;2023-09-30T08:21:33;101867.44;;;17.70;79.37
55733;BME280;41637;52.364;9.910;2023-09-30T08:24:00;101871.34;;;17.89;78.19
55733;BME280;41637;52.364;9.910;2023-09-30T08:26:27;101853.84;;;18.00;76.91
55733;BME280;41637;52.364;9.910;2023-09-30T08:28:53;101868.41;;;18.12;75.97
55733;BME280;41637;52.364;9.910;2023-09-30T08:31:20;101860.19;;;18.20;75.32
55733;BME280;41637;52.364;9.910;2023-09-30T08:33:48;101864.81;;;18.33;75.94
55733;BME280;41637;52.364;9.910;2023-09-30T08:36:15;101870.47;;;18.45;74.71
55733;BME280;41637;52.364;9.910;2023-09-30T08:38:42;101874.03;;;18.52;73.66
55733;BME280;41637;52.364;9.910;2023-09-30T08:41:09;101871.56;;;18.57;72.96
55733;BME280;41637;52.364;9.910;2023-09-30T08:43:39;101860.00;;;18.63;72.66
55733;BME280;41637;52.364;9.910;2023-09-30T08:46:07;101879.03;;;18.62;71.70
55733;BME280;41637;52.364;9.910;2023-09-30T08:48:34;101867.91;;;18.71;71.22
55733;BME280;41637;52.364;9.910;2023-09-30T08:51:02;101864.63;;;18.76;71.28
55733;BME280;41637;52.364;9.910;2023-09-30T08:53:29;101870.03;;;18.83;71.56
55733;BME280;41637;52.364;9.910;2023-09-30T08:55:57;101869.66;;;18.86;69.98
55733;BME280;41637;52.364;9.910;2023-09-30T08:58:28;101870.28;;;18.88;70.84
55733;BME280;41637;52.364;9.910;2023-09-30T09:00:58;101867.81;;;18.93;70.35
55733;BME280;41637;52.364;9.910;2023-09-30T09:03:28;101892.00;;;18.93;68.26
55733;BME280;41637;52.364;9.910;2023-09-30T09:05:55;101884.56;;;18.88;67.85
55733;BME280;41637;52.364;9.910;2023-09-30T09:08:25;101885.78;;;18.86;67.41
55733;BME280;41637;52.364;9.910;2023-09-30T09:10:56;101882.06;;;18.87;68.64
55733;BME280;41637;52.364;9.910;2023-09-30T09:13:24;101880.00;;;18.95;68.68
55733;BME280;41637;52.364;9.910;2023-09-30T09:16:07;101886.03;;;18.98;68.33
55733;BME280;41637;52.364;9.910;2023-09-30T09:18:35;101888.09;;;18.95;67.55
55733;BME280;41637;52.364;9.910;2023-09-30T09:21:11;101896.53;;;18.86;67.32
55733;BME280;41637;52.364;9.910;2023-09-30T09:23:42;101897.22;;;19.08;67.24
55733;BME280;41637;52.364;9.910;2023-09-30T09:26:31;101901.63;;;19.22;66.86
55733;BME280;41637;52.364;9.910;2023-09-30T09:28:59;101902.06;;;19.32;67.33
55733;BME280;41637;52.364;9.910;2023-09-30T09:31:31;101893.19;;;19.39;65.53
55733;BME280;41637;52.364;9.910;2023-09-30T09:34:02;101891.56;;;19.58;66.22
55733;BME280;41637;52.364;9.910;2023-09-30T09:36:43;101890.78;;;19.70;65.69
55733;BME280;41637;52.364;9.910;2023-09-30T09:39:11;101884.75;;;19.88;64.53
55733;BME280;41637;52.364;9.910;2023-09-30T09:41:51;101892.84;;;20.08;64.42
55733;BME280;41637;52.364;9.910;2023-09-30T09:44:20;101896.34;;;20.09;64.16
55733;BME280;41637;52.364;9.910;2023-09-30T09:46:49;101881.66;;;19.98;64.22
55733;BME280;41637;52.364;9.910;2023-09-30T09:49:18;101877.53;;;19.95;62.47
55733;BME280;41637;52.364;9.910;2023-09-30T09:51:48;101881.88;;;19.90;62.51
55733;BME280;41637;52.364;9.910;2023-09-30T09:54:16;101872.97;;;19.89;62.73
55733;BME280;41637;52.364;9.910;2023-09-30T09:56:48;101876.06;;;19.86;61.85
55733;BME280;41637;52.364;9.910;2023-09-30T09:59:16;101882.69;;;19.84;62.34
55733;BME280;41637;52.364;9.910;2023-09-30T10:01:43;101888.91;;;19.71;62.13
55733;BME280;41637;52.364;9.910;2023-09-30T10:04:12;101878.50;;;19.61;61.95
55733;BME280;41637;52.364;9.910;2023-09-30T10:06:44;101885.78;;;19.74;62.37
55733;BME280;41637;52.364;9.910;2023-09-30T10:09:16;101893.66;;;19.89;63.39
55733;BME280;41637;52.364;9.910;2023-09-30T10:11:44;101890.97;;;19.89;60.35
55733;BME280;41637;52.364;9.910;2023-09-30T10:14:30;101891.78;;;19.76;60.86
55733;BME280;41637;52.364;9.910;2023-09-30T10:16:57;101907.09;;;19.69;61.98
55733;BME280;41637;52.364;9.910;2023-09-30T10:19:24;101893.84;;;19.74;62.04
55733;BME280;41637;52.364;9.910;2023-09-30T10:24:51;101891.81;;;19.83;60.31
55733;BME280;41637;52.364;9.910;2023-09-30T10:35:41;101907.53;;;20.06;59.62
55733;BME280;41637;52.364;9.910;2023-09-30T10:40:53;101890.31;;;20.20;59.73
55733;BME280;41637;52.364;9.910;2023-09-30T10:43:32;101887.59;;;20.40;58.10
55733;BME280;41637;52.364;9.910;2023-09-30T10:46:00;101891.69;;;20.56;57.67
55733;BME280;41637;52.364;9.910;2023-09-30T10:50:58;101907.81;;;20.83;54.75
55733;BME280;41637;52.364;9.910;2023-09-30T10:53:28;101921.03;;;20.91;54.99
55733;BME280;41637;52.364;9.910;2023-09-30T10:55:56;101907.28;;;21.06;55.05
55733;BME280;41637;52.364;9.910;2023-09-30T11:01:13;101889.69;;;21.35;52.60
55733;BME280;41637;52.364;9.910;2023-09-30T11:03:41;101891.69;;;21.53;53.20
55733;BME280;41637;52.364;9.910;2023-09-30T11:06:13;101882.34;;;21.74;52.39
55733;BME280;41637;52.364;9.910;2023-09-30T11:08:46;101894.81;;;21.75;50.87
55733;BME280;41637;52.364;9.910;2023-09-30T11:11:17;101887.34;;;21.77;51.87
55733;BME280;41637;52.364;9.910;2023-09-30T11:13:44;101893.28;;;21.86;51.89
55733;BME280;41637;52.364;9.910;2023-09-30T11:16:10;101882.31;;;21.81;50.41
55733;BME280;41637;52.364;9.910;2023-09-30T11:18:37;101890.19;;;21.82;48.11
55733;BME280;41637;52.364;9.910;2023-09-30T11:21:09;101886.06;;;22.05;48.59
55733;BME280;41637;52.364;9.910;2023-09-30T11:23:37;101881.03;;;22.08;48.63
55733;BME280;41637;52.364;9.910;2023-09-30T11:26:04;101883.22;;;22.18;46.68
55733;BME280;41637;52.364;9.910;2023-09-30T11:28:38;101896.28;;;22.21;45.23
55733;BME280;41637;52.364;9.910;2023-09-30T11:31:11;101881.53;;;22.24;43.52
55733;BME280;41637;52.364;9.910;2023-09-30T11:33:49;101879.69;;;22.17;42.91
55733;BME280;41637;52.364;9.910;2023-09-30T11:36:21;101876.59;;;22.14;44.01
55733;BME280;41637;52.364;9.910;2023-09-30T11:38:50;101874.06;;;22.19;44.18
55733;BME280;41637;52.364;9.910;2023-09-30T11:41:19;101869.47;;;22.19;44.90
55733;BME280;41637;52.364;9.910;2023-09-30T11:44:09;101879.53;;;22.12;44.82
55733;BME280;41637;52.364;9.910;2023-09-30T11:47:00;101872.84;;;22.15;45.18
55733;BME280;41637;52.364;9.910;2023-09-30T11:49:32;101874.56;;;22.09;42.98
55733;BME280;41637;52.364;9.910;2023-09-30T11:52:27;101871.47;;;22.06;41.49
55733;BME280;41637;52.364;9.910;2023-09-30T11:54:54;101864.06;;;22.19;43.66
55733;BME280;41637;52.364;9.910;2023-09-30T11:57:22;101874.06;;;22.19;44.33
55733;BME280;41637;52.364;9.910;2023-09-30T11:59:49;101874.41;;;22.29;43.50
55733;BME280;41637;52.364;9.910;2023-09-30T12:02:18;101873.06;;;22.38;41.79
55733;BME280;41637;52.364;9.910;2023-09-30T12:04:46;101866.38;;;22.16;41.50
55733;BME280;41637;52.364;9.910;2023-09-30T12:07:16;101878.53;;;22.07;42.11
55733;BME280;41637;52.364;9.910;2023-09-30T12:09:43;101886.06;;;22.05;43.09
55733;BME280;41637;52.364;9.910;2023-09-30T12:12:10;101880.44;;;22.06;43.34
55733;BME280;41637;52.364;9.910;2023-09-30T12:14:39;101882.88;;;22.08;44.33
55733;BME280;41637;52.364;9.910;2023-09-30T12:17:07;101882.19;;;21.94;44.55
55733;BME280;41637;52.364;9.910;2023-09-30T12:19:40;101868.34;;;21.58;44.84
55733;BME280;41637;52.364;9.910;2023-09-30T12:22:09;101875.75;;;21.45;46.14
55733;BME280;41637;52.364;9.910;2023-09-30T12:24:37;101872.66;;;21.34;46.42
55733;BME280;41637;52.364;9.910;2023-09-30T12:27:04;101862.97;;;21.58;46.02
55733;BME280;41637;52.364;9.910;2023-09-30T12:29:31;101855.88;;;21.64;41.99
55733;BME280;41637;52.364;9.910;2023-09-30T12:31:58;101855.97;;;21.76;40.98
55733;BME280;41637;52.364;9.910;2023-09-30T12:34:25;101855.69;;;21.84;41.74
55733;BME280;41637;52.364;9.910;2023-09-30T12:36:54;101851.81;;;21.98;41.12
55733;BME280;41637;52.364;9.910;2023-09-30T12:39:24;101843.09;;;21.96;42.10
55733;BME280;41637;52.364;9.910;2023-09-30T12:41:53;101843.41;;;22.07;43.42
55733;BME280;41637;52.364;9.910;2023-09-30T12:44:20;101844.69;;;22.04;44.08
55733;BME280;41637;52.364;9.910;2023-09-30T12:46:50;101836.66;;;22.16;43.88
55733;BME280;41637;52.364;9.910;2023-09-30T12:49:17;101832.94;;;22.54;43.36
55733;BME280;41637;52.364;9.910;2023-09-30T12:51:44;101819.91;;;22.93;43.40
55733;BME280;41637;52.364;9.910;2023-09-30T12:54:11;101832.91;;;23.33;41.36
55733;BME280;41637;52.364;9.910;2023-09-30T12:56:40;101832.63;;;23.76;40.86
55733;BME280;41637;52.364;9.910;2023-09-30T12:59:07;101838.63;;;24.02;39.50
55733;BME280;41637;52.364;9.910;2023-09-30T13:01:34;101821.81;;;24.40;38.64
55733;BME280;41637;52.364;9.910;2023-09-30T13:04:02;101835.88;;;24.78;36.58
55733;BME280;41637;52.364;9.910;2023-09-30T13:06:29;101827.41;;;24.74;37.25
55733;BME280;41637;52.364;9.910;2023-09-30T13:08:59;101837.53;;;24.79;36.82
55733;BME280;41637;52.364;9.910;2023-09-30T13:11:27;101833.78;;;24.97;36.55
55733;BME280;41637;52.364;9.910;2023-09-30T13:13:54;101829.75;;;25.28;37.61